sensor_id;sensor_type;location;lat;lon;timestamp;temperature;humidity
20998;DHT22;10657;51.276;6.390;2022-10-16T00:01:23;13.50;99.90
20998;DHT22;10657;51.276;6.390;2022-10-16T00:03:51;13.60;99.90
20998;DHT22;10657;51.276;6.390;2022-10-16T00:06:20;13.60;99.90
20998;DHT22;10657;51.276;6.390;2022-10-16T00:08:47;13.60;99.90
20998;DHT22;10657;51.276;6.390;2022-10-16T00:13:44;13.60;99.90
20998;DHT22;10657;51.276;6.390;2022-10-16T00:16:12;13.50;99.90
20998;DHT22;10657;51.276;6.390;2022-10-16T00:18:39;13.60;99.90
20998;DHT22;10657;51.276;6.390;2022-10-16T00:21:08;13.60;99.90
20998;DHT22;10657;51.276;6.390;2022-10-16T00:23:35;13.60;99.90
20998;DHT22;10657;51.276;6.390;2022-10-16T00:26:06;13.60;99.90
20998;DHT22;10657;51.276;6.390;2022-10-16T00:28:33;13.60;99.90
20998;DHT22;10657;51.276;6.390;2022-10-16T00:31:09;13.50;99.90
20998;DHT22;10657;51.276;6.390;2022-10-16T00:33:36;13.50;99.90
20998;DHT22;10657;51.276;6.390;2022-10-16T00:36:05;13.60;99.90
20998;DHT22;10657;51.276;6.390;2022-10-16T00:38:33;13.60;99.90
20998;DHT22;10657;51.276;6.390;2022-10-16T00:41:00;13.50;99.90
20998;DHT22;10657;51.276;6.390;2022-10-16T00:43:50;13.50;99.90
20998;DHT22;10657;51.276;6.390;2022-10-16T00:46:26;13.40;99.90
20998;DHT22;10657;51.276;6.390;2022-10-16T00:49:12;13.30;99.90
20998;DHT22;10657;51.276;6.390;2022-10-16T00:51:47;13.30;99.90
20998;DHT22;10657;51.276;6.390;2022-10-16T00:54:24;13.40;99.90
20998;DHT22;10657;51.276;6.390;2022-10-16T00:56:53;13.40;99.90
20998;DHT22;10657;51.276;6.390;2022-10-16T00:59:27;13.20;99.90
20998;DHT22;10657;51.276;6.390;2022-10-16T01:01:54;13.30;99.90
20998;DHT22;10657;51.276;6.390;2022-10-16T01:04:21;13.30;99.90
20998;DHT22;10657;51.276;6.390;2022-10-16T01:07:30;13.20;99.90
20998;DHT22;10657;51.276;6.390;2022-10-16T01:13:03;13.20;99.90
20998;DHT22;10657;51.276;6.390;2022-10-16T01:15:54;13.20;99.90
20998;DHT22;10657;51.276;6.390;2022-10-16T01:18:39;13.20;99.90
20998;DHT22;10657;51.276;6.390;2022-10-16T01:21:24;13.20;99.90
20998;DHT22;10657;51.276;6.390;2022-10-16T01:24:06;13.10;99.90
20998;DHT22;10657;51.276;6.390;2022-10-16T01:27:10;13.10;99.90
20998;DHT22;10657;51.276;6.390;2022-10-16T01:29:59;13.10;99.90
20998;DHT22;10657;51.276;6.390;2022-10-16T01:35:04;13.00;99.90
20998;DHT22;10657;51.276;6.390;2022-10-16T01:37:41;12.90;99.90
20998;DHT22;10657;51.276;6.390;2022-10-16T01:40:12;12.90;99.90
20998;DHT22;10657;51.276;6.390;2022-10-16T01:42:42;12.90;99.90
20998;DHT22;10657;51.276;6.390;2022-10-16T01:45:13;13.00;99.90
20998;DHT22;10657;51.276;6.390;2022-10-16T01:47:41;13.00;99.90
20998;DHT22;10657;51.276;6.390;2022-10-16T01:50:10;13.00;99.90
20998;DHT22;10657;51.276;6.390;2022-10-16T01:52:41;13.00;99.90
20998;DHT22;10657;51.276;6.390;2022-10-16T01:55:09;13.10;99.90
20998;DHT22;10657;51.276;6.390;2022-10-16T01:57:39;13.10;99.90
20998;DHT22;10657;51.276;6.390;2022-10-16T02:00:11;13.20;99.90
20998;DHT22;10657;51.276;6.390;2022-10-16T02:02:40;13.20;99.90
20998;DHT22;10657;51.276;6.390;2022-10-16T02:07:48;13.20;99.90
20998;DHT22;10657;51.276;6.390;2022-10-16T02:10:16;13.20;99.90
20998;DHT22;10657;51.276;6.390;2022-10-16T02:12:57;13.10;99.90
20998;DHT22;10657;51.276;6.390;2022-10-16T02:15:26;13.10;99.90
20998;DHT22;10657;51.276;6.390;2022-10-16T02:17:52;13.10;99.90
20998;DHT22;10657;51.276;6.390;2022-10-16T02:20:26;13.20;99.90
20998;DHT22;10657;51.276;6.390;2022-10-16T02:22:54;13.20;99.90
20998;DHT22;10657;51.276;6.390;2022-10-16T02:25:30;13.20;99.90
20998;DHT22;10657;51.276;6.390;2022-10-16T02:28:06;13.30;99.90
20998;DHT22;10657;51.276;6.390;2022-10-16T02:30:41;13.30;99.90
20998;DHT22;10657;51.276;6.390;2022-10-16T02:33:11;13.30;99.90
20998;DHT22;10657;51.276;6.390;2022-10-16T02:35:40;13.40;99.90
20998;DHT22;10657;51.276;6.390;2022-10-16T02:38:08;13.40;99.90
20998;DHT22;10657;51.276;6.390;2022-10-16T02:40:40;13.40;99.90
20998;DHT22;10657;51.276;6.390;2022-10-16T02:43:07;13.50;99.90
20998;DHT22;10657;51.276;6.390;2022-10-16T02:45:35;13.40;99.90
20998;DHT22;10657;51.276;6.390;2022-10-16T02:48:02;13.50;99.90
20998;DHT22;10657;51.276;6.390;2022-10-16T02:50:28;13.40;99.90
20998;DHT22;10657;51.276;6.390;2022-10-16T02:52:55;13.50;99.90
20998;DHT22;10657;51.276;6.390;2022-10-16T02:55:22;13.40;99.90
20998;DHT22;10657;51.276;6.390;2022-10-16T02:57:48;13.40;99.90
20998;DHT22;10657;51.276;6.390;2022-10-16T03:00:16;13.50;99.90
20998;DHT22;10657;51.276;6.390;2022-10-16T03:02:43;13.50;99.90
20998;DHT22;10657;51.276;6.390;2022-10-16T03:05:10;13.50;99.90
20998;DHT22;10657;51.276;6.390;2022-10-16T03:07:37;13.50;99.90
20998;DHT22;10657;51.276;6.390;2022-10-16T03:10:04;13.50;99.90
20998;DHT22;10657;51.276;6.390;2022-10-16T03:12:31;13.50;99.90
20998;DHT22;10657;51.276;6.390;2022-10-16T03:14:58;13.40;99.90
20998;DHT22;10657;51.276;6.390;2022-10-16T03:17:25;13.40;99.90
20998;DHT22;10657;51.276;6.390;2022-10-16T03:19:52;13.40;99.90
20998;DHT22;10657;51.276;6.390;2022-10-16T03:22:19;13.40;99.90
20998;DHT22;10657;51.276;6.390;2022-10-16T03:24:45;13.40;99.90
20998;DHT22;10657;51.276;6.390;2022-10-16T03:27:12;13.40;99.90
20998;DHT22;10657;51.276;6.390;2022-10-16T03:29:38;13.40;99.90
20998;DHT22;10657;51.276;6.390;2022-10-16T03:32:05;13.30;99.90
20998;DHT22;10657;51.276;6.390;2022-10-16T03:34:32;13.40;99.90
20998;DHT22;10657;51.276;6.390;2022-10-16T03:36:58;13.30;99.90
20998;DHT22;10657;51.276;6.390;2022-10-16T03:39:25;13.30;99.90
20998;DHT22;10657;51.276;6.390;2022-10-16T03:41:51;13.30;99.90
20998;DHT22;10657;51.276;6.390;2022-10-16T03:44:18;13.30;99.90
20998;DHT22;10657;51.276;6.390;2022-10-16T03:46:44;13.30;99.90
20998;DHT22;10657;51.276;6.390;2022-10-16T03:49:11;13.20;99.90
20998;DHT22;10657;51.276;6.390;2022-10-16T03:51:38;13.20;99.90
20998;DHT22;10657;51.276;6.390;2022-10-16T03:54:04;13.20;99.90
20998;DHT22;10657;51.276;6.390;2022-10-16T03:56:31;13.20;99.90
20998;DHT22;10657;51.276;6.390;2022-10-16T03:58:58;13.20;99.90
20998;DHT22;10657;51.276;6.390;2022-10-16T04:01:24;13.10;99.90
20998;DHT22;10657;51.276;6.390;2022-10-16T04:03:51;13.10;99.90
20998;DHT22;10657;51.276;6.390;2022-10-16T04:06:18;13.10;99.90
20998;DHT22;10657;51.276;6.390;2022-10-16T04:08:44;13.10;99.90
20998;DHT22;10657;51.276;6.390;2022-10-16T04:11:11;13.10;99.90
20998;DHT22;10657;51.276;6.390;2022-10-16T04:13:38;13.10;99.90
20998;DHT22;10657;51.276;6.390;2022-10-16T04:16:04;13.00;99.90
20998;DHT22;10657;51.276;6.390;2022-10-16T04:18:31;13.10;99.90
20998;DHT22;10657;51.276;6.390;2022-10-16T04:21:03;13.10;99.90
20998;DHT22;10657;51.276;6.390;2022-10-16T04:23:30;13.00;99.90
20998;DHT22;10657;51.276;6.390;2022-10-16T04:25:57;13.00;99.90
20998;DHT22;10657;51.276;6.390;2022-10-16T04:28:23;13.00;99.90
20998;DHT22;10657;51.276;6.390;2022-10-16T04:30:50;13.00;99.90
20998;DHT22;10657;51.276;6.390;2022-10-16T04:33:17;12.90;99.90
20998;DHT22;10657;51.276;6.390;2022-10-16T04:35:43;13.10;99.90
20998;DHT22;10657;51.276;6.390;2022-10-16T04:38:10;13.00;99.90
20998;DHT22;10657;51.276;6.390;2022-10-16T04:40:37;13.00;99.90
20998;DHT22;10657;51.276;6.390;2022-10-16T04:43:04;12.90;99.90
20998;DHT22;10657;51.276;6.390;2022-10-16T04:45:31;12.90;99.90
20998;DHT22;10657;51.276;6.390;2022-10-16T04:47:59;13.00;99.90
20998;DHT22;10657;51.276;6.390;2022-10-16T04:50:26;12.90;99.90
20998;DHT22;10657;51.276;6.390;2022-10-16T04:52:52;12.90;99.90
20998;DHT22;10657;51.276;6.390;2022-10-16T04:55:19;12.90;99.90
20998;DHT22;10657;51.276;6.390;2022-10-16T04:57:46;12.90;99.90
20998;DHT22;10657;51.276;6.390;2022-10-16T05:00:12;12.90;99.90
20998;DHT22;10657;51.276;6.390;2022-10-16T05:02:39;13.00;99.90
20998;DHT22;10657;51.276;6.390;2022-10-16T05:05:06;13.00;99.90
20998;DHT22;10657;51.276;6.390;2022-10-16T05:07:33;13.00;99.90
20998;DHT22;10657;51.276;6.390;2022-10-16T05:09:59;13.00;99.90
20998;DHT22;10657;51.276;6.390;2022-10-16T05:12:26;13.00;99.90
20998;DHT22;10657;51.276;6.390;2022-10-16T05:14:53;13.00;99.90
20998;DHT22;10657;51.276;6.390;2022-10-16T05:17:25;12.90;99.90
20998;DHT22;10657;51.276;6.390;2022-10-16T05:19:52;12.90;99.90
20998;DHT22;10657;51.276;6.390;2022-10-16T05:22:19;13.00;99.90
20998;DHT22;10657;51.276;6.390;2022-10-16T05:24:46;13.00;99.90
20998;DHT22;10657;51.276;6.390;2022-10-16T05:27:12;12.90;99.90
20998;DHT22;10657;51.276;6.390;2022-10-16T05:29:46;13.00;99.90
20998;DHT22;10657;51.276;6.390;2022-10-16T05:32:14;13.00;99.90
20998;DHT22;10657;51.276;6.390;2022-10-16T05:34:41;12.90;99.90
20998;DHT22;10657;51.276;6.390;2022-10-16T05:37:08;12.90;99.90
20998;DHT22;10657;51.276;6.390;2022-10-16T05:39:35;12.90;99.90
20998;DHT22;10657;51.276;6.390;2022-10-16T05:42:03;12.90;99.90
20998;DHT22;10657;51.276;6.390;2022-10-16T05:44:30;12.90;99.90
20998;DHT22;10657;51.276;6.390;2022-10-16T05:46:57;12.90;99.90
20998;DHT22;10657;51.276;6.390;2022-10-16T05:49:24;12.90;99.90
20998;DHT22;10657;51.276;6.390;2022-10-16T05:51:50;12.90;99.90
20998;DHT22;10657;51.276;6.390;2022-10-16T05:54:17;12.90;99.90
20998;DHT22;10657;51.276;6.390;2022-10-16T05:56:44;12.90;99.90
20998;DHT22;10657;51.276;6.390;2022-10-16T05:59:10;12.80;99.90
20998;DHT22;10657;51.276;6.390;2022-10-16T06:01:37;12.80;99.90
20998;DHT22;10657;51.276;6.390;2022-10-16T06:04:03;12.90;99.90
20998;DHT22;10657;51.276;6.390;2022-10-16T06:06:30;12.90;99.90
20998;DHT22;10657;51.276;6.390;2022-10-16T06:08:57;12.90;99.90
20998;DHT22;10657;51.276;6.390;2022-10-16T06:11:26;12.80;99.90
20998;DHT22;10657;51.276;6.390;2022-10-16T06:13:55;12.80;99.90
20998;DHT22;10657;51.276;6.390;2022-10-16T06:16:26;12.90;99.90
20998;DHT22;10657;51.276;6.390;2022-10-16T06:18:54;12.80;99.90
20998;DHT22;10657;51.276;6.390;2022-10-16T06:21:24;12.90;99.90
20998;DHT22;10657;51.276;6.390;2022-10-16T06:23:51;12.80;99.90
20998;DHT22;10657;51.276;6.390;2022-10-16T06:26:21;12.80;99.90
20998;DHT22;10657;51.276;6.390;2022-10-16T06:28:49;12.90;99.90
20998;DHT22;10657;51.276;6.390;2022-10-16T06:31:16;12.90;99.90
20998;DHT22;10657;51.276;6.390;2022-10-16T06:33:43;12.80;99.90
20998;DHT22;10657;51.276;6.390;2022-10-16T06:36:14;12.80;99.90
20998;DHT22;10657;51.276;6.390;2022-10-16T06:38:41;12.90;99.90
20998;DHT22;10657;51.276;6.390;2022-10-16T06:41:13;12.80;99.90
20998;DHT22;10657;51.276;6.390;2022-10-16T06:43:40;12.80;99.90
20998;DHT22;10657;51.276;6.390;2022-10-16T06:46:09;12.80;99.90
20998;DHT22;10657;51.276;6.390;2022-10-16T06:48:37;12.80;99.90
20998;DHT22;10657;51.276;6.390;2022-10-16T06:51:16;12.90;99.90
20998;DHT22;10657;51.276;6.390;2022-10-16T06:53:51;12.90;99.90
20998;DHT22;10657;51.276;6.390;2022-10-16T06:56:33;13.00;99.90
20998;DHT22;10657;51.276;6.390;2022-10-16T06:59:00;13.00;99.90
20998;DHT22;10657;51.276;6.390;2022-10-16T07:01:28;13.00;99.90
20998;DHT22;10657;51.276;6.390;2022-10-16T07:03:54;13.00;99.90
20998;DHT22;10657;51.276;6.390;2022-10-16T07:06:23;13.00;99.90
20998;DHT22;10657;51.276;6.390;2022-10-16T07:08:50;13.00;99.90
20998;DHT22;10657;51.276;6.390;2022-10-16T07:11:19;13.00;99.90
20998;DHT22;10657;51.276;6.390;2022-10-16T07:13:47;13.10;99.90
20998;DHT22;10657;51.276;6.390;2022-10-16T07:16:28;13.00;99.90
20998;DHT22;10657;51.276;6.390;2022-10-16T07:18:56;13.00;99.90
20998;DHT22;10657;51.276;6.390;2022-10-16T07:21:29;13.00;99.90
20998;DHT22;10657;51.276;6.390;2022-10-16T07:23:58;13.10;99.90
20998;DHT22;10657;51.276;6.390;2022-10-16T07:26:26;13.10;99.90
20998;DHT22;10657;51.276;6.390;2022-10-16T07:28:53;13.20;99.90
20998;DHT22;10657;51.276;6.390;2022-10-16T07:31:20;13.30;99.90
20998;DHT22;10657;51.276;6.390;2022-10-16T07:33:48;13.30;99.90
20998;DHT22;10657;51.276;6.390;2022-10-16T07:36:16;13.30;99.90
20998;DHT22;10657;51.276;6.390;2022-10-16T07:38:43;13.40;99.90
20998;DHT22;10657;51.276;6.390;2022-10-16T07:41:14;13.50;99.90
20998;DHT22;10657;51.276;6.390;2022-10-16T07:43:48;13.60;99.90
20998;DHT22;10657;51.276;6.390;2022-10-16T07:46:16;13.60;99.90
20998;DHT22;10657;51.276;6.390;2022-10-16T07:48:43;13.70;99.90
20998;DHT22;10657;51.276;6.390;2022-10-16T07:51:17;13.70;99.90
20998;DHT22;10657;51.276;6.390;2022-10-16T07:53:44;13.80;99.90
20998;DHT22;10657;51.276;6.390;2022-10-16T07:56:11;13.90;99.90
20998;DHT22;10657;51.276;6.390;2022-10-16T07:58:38;14.00;99.90
20998;DHT22;10657;51.276;6.390;2022-10-16T08:01:06;14.00;99.90
20998;DHT22;10657;51.276;6.390;2022-10-16T08:03:33;14.10;99.90
20998;DHT22;10657;51.276;6.390;2022-10-16T08:06:01;14.10;99.90
20998;DHT22;10657;51.276;6.390;2022-10-16T08:08:29;14.30;99.90
20998;DHT22;10657;51.276;6.390;2022-10-16T08:10:56;14.40;99.90
20998;DHT22;10657;51.276;6.390;2022-10-16T08:13:22;14.40;99.90
20998;DHT22;10657;51.276;6.390;2022-10-16T08:15:49;14.50;99.90
20998;DHT22;10657;51.276;6.390;2022-10-16T08:18:16;14.60;99.90
20998;DHT22;10657;51.276;6.390;2022-10-16T08:20:43;14.70;99.90
20998;DHT22;10657;51.276;6.390;2022-10-16T08:23:11;14.70;99.90
20998;DHT22;10657;51.276;6.390;2022-10-16T08:25:38;14.70;99.90
20998;DHT22;10657;51.276;6.390;2022-10-16T08:28:06;14.80;99.90
20998;DHT22;10657;51.276;6.390;2022-10-16T08:30:33;14.80;99.90
20998;DHT22;10657;51.276;6.390;2022-10-16T08:33:00;14.90;99.90
20998;DHT22;10657;51.276;6.390;2022-10-16T08:35:27;15.00;99.90
20998;DHT22;10657;51.276;6.390;2022-10-16T08:37:54;15.10;99.90
20998;DHT22;10657;51.276;6.390;2022-10-16T08:40:32;15.20;99.90
20998;DHT22;10657;51.276;6.390;2022-10-16T08:43:12;15.20;99.90
20998;DHT22;10657;51.276;6.390;2022-10-16T08:48:49;15.30;99.90
20998;DHT22;10657;51.276;6.390;2022-10-16T08:51:35;15.30;99.90
20998;DHT22;10657;51.276;6.390;2022-10-16T08:54:43;15.50;99.90
20998;DHT22;10657;51.276;6.390;2022-10-16T08:57:20;15.50;99.90
20998;DHT22;10657;51.276;6.390;2022-10-16T08:59:51;15.60;99.90
20998;DHT22;10657;51.276;6.390;2022-10-16T09:11:04;15.70;99.90
20998;DHT22;10657;51.276;6.390;2022-10-16T09:13:55;15.80;99.90
20998;DHT22;10657;51.276;6.390;2022-10-16T09:16:30;15.90;99.90
20998;DHT22;10657;51.276;6.390;2022-10-16T09:19:15;15.90;99.90
20998;DHT22;10657;51.276;6.390;2022-10-16T09:21:45;15.90;99.90
20998;DHT22;10657;51.276;6.390;2022-10-16T09:26:43;16.10;99.90
20998;DHT22;10657;51.276;6.390;2022-10-16T09:29:14;16.10;99.90
20998;DHT22;10657;51.276;6.390;2022-10-16T09:31:42;16.10;99.90
20998;DHT22;10657;51.276;6.390;2022-10-16T09:34:30;16.10;99.90
20998;DHT22;10657;51.276;6.390;2022-10-16T09:36:58;16.10;99.90
20998;DHT22;10657;51.276;6.390;2022-10-16T09:39:25;16.20;99.90
20998;DHT22;10657;51.276;6.390;2022-10-16T09:41:52;16.30;99.90
20998;DHT22;10657;51.276;6.390;2022-10-16T09:44:28;16.30;99.90
20998;DHT22;10657;51.276;6.390;2022-10-16T09:47:03;16.30;99.90
20998;DHT22;10657;51.276;6.390;2022-10-16T09:49:30;16.30;99.90
20998;DHT22;10657;51.276;6.390;2022-10-16T09:52:13;16.40;99.90
20998;DHT22;10657;51.276;6.390;2022-10-16T09:54:50;16.40;99.90
20998;DHT22;10657;51.276;6.390;2022-10-16T09:57:17;16.50;99.90
20998;DHT22;10657;51.276;6.390;2022-10-16T09:59:55;16.50;99.90
20998;DHT22;10657;51.276;6.390;2022-10-16T10:02:35;16.60;99.90
20998;DHT22;10657;51.276;6.390;2022-10-16T10:05:04;16.60;99.90
20998;DHT22;10657;51.276;6.390;2022-10-16T10:07:39;16.70;99.90
20998;DHT22;10657;51.276;6.390;2022-10-16T10:10:24;16.80;99.90
20998;DHT22;10657;51.276;6.390;2022-10-16T10:12:50;16.80;99.90
20998;DHT22;10657;51.276;6.390;2022-10-16T10:15:17;16.90;99.90
20998;DHT22;10657;51.276;6.390;2022-10-16T10:17:53;16.80;99.90
20998;DHT22;10657;51.276;6.390;2022-10-16T10:20:35;16.80;99.90
20998;DHT22;10657;51.276;6.390;2022-10-16T10:23:24;16.80;99.90
20998;DHT22;10657;51.276;6.390;2022-10-16T10:36:49;16.80;99.90
20998;DHT22;10657;51.276;6.390;2022-10-16T10:42:06;17.00;99.90
20998;DHT22;10657;51.276;6.390;2022-10-16T10:44:54;17.10;99.90
20998;DHT22;10657;51.276;6.390;2022-10-16T10:50:29;17.10;99.90
20998;DHT22;10657;51.276;6.390;2022-10-16T10:59:11;17.20;99.90
20998;DHT22;10657;51.276;6.390;2022-10-16T11:02:04;17.20;99.90
20998;DHT22;10657;51.276;6.390;2022-10-16T11:07:25;17.70;99.90
20998;DHT22;10657;51.276;6.390;2022-10-16T11:10:04;17.80;99.90
20998;DHT22;10657;51.276;6.390;2022-10-16T11:12:38;17.80;99.90
20998;DHT22;10657;51.276;6.390;2022-10-16T11:15:27;18.00;99.90
20998;DHT22;10657;51.276;6.390;2022-10-16T11:18:00;17.90;99.90
20998;DHT22;10657;51.276;6.390;2022-10-16T11:20:37;17.90;99.90
20998;DHT22;10657;51.276;6.390;2022-10-16T11:25:48;18.40;99.90
20998;DHT22;10657;51.276;6.390;2022-10-16T11:31:02;18.10;99.90
20998;DHT22;10657;51.276;6.390;2022-10-16T11:33:42;18.10;99.90
20998;DHT22;10657;51.276;6.390;2022-10-16T11:41:55;17.90;99.90
20998;DHT22;10657;51.276;6.390;2022-10-16T11:44:51;18.10;99.90
20998;DHT22;10657;51.276;6.390;2022-10-16T11:47:35;18.30;99.90
20998;DHT22;10657;51.276;6.390;2022-10-16T11:50:39;18.70;99.90
20998;DHT22;10657;51.276;6.390;2022-10-16T11:55:55;18.80;99.90
20998;DHT22;10657;51.276;6.390;2022-10-16T11:58:38;18.80;99.90
20998;DHT22;10657;51.276;6.390;2022-10-16T12:01:15;18.70;99.90
20998;DHT22;10657;51.276;6.390;2022-10-16T12:03:47;18.40;99.90
20998;DHT22;10657;51.276;6.390;2022-10-16T12:06:34;18.20;99.90
20998;DHT22;10657;51.276;6.390;2022-10-16T12:09:04;18.40;99.90
20998;DHT22;10657;51.276;6.390;2022-10-16T12:11:38;18.40;99.90
20998;DHT22;10657;51.276;6.390;2022-10-16T12:16:33;18.40;99.90
20998;DHT22;10657;51.276;6.390;2022-10-16T12:19:16;18.50;99.90
20998;DHT22;10657;51.276;6.390;2022-10-16T12:21:45;18.40;99.90
20998;DHT22;10657;51.276;6.390;2022-10-16T12:24:37;18.70;99.90
20998;DHT22;10657;51.276;6.390;2022-10-16T12:27:30;18.80;99.90
20998;DHT22;10657;51.276;6.390;2022-10-16T12:30:02;18.80;99.90
20998;DHT22;10657;51.276;6.390;2022-10-16T12:35:22;18.70;99.90
20998;DHT22;10657;51.276;6.390;2022-10-16T12:37:50;18.90;99.90
20998;DHT22;10657;51.276;6.390;2022-10-16T12:40:28;18.70;99.90
20998;DHT22;10657;51.276;6.390;2022-10-16T12:42:56;18.80;99.90
20998;DHT22;10657;51.276;6.390;2022-10-16T12:45:31;19.30;99.90
20998;DHT22;10657;51.276;6.390;2022-10-16T12:48:00;19.30;99.90
20998;DHT22;10657;51.276;6.390;2022-10-16T12:52:58;18.60;99.90
20998;DHT22;10657;51.276;6.390;2022-10-16T12:55:26;18.70;99.90
20998;DHT22;10657;51.276;6.390;2022-10-16T13:01:20;18.60;99.90
20998;DHT22;10657;51.276;6.390;2022-10-16T13:09:19;18.50;99.90
20998;DHT22;10657;51.276;6.390;2022-10-16T13:28:58;18.60;99.90
20998;DHT22;10657;51.276;6.390;2022-10-16T13:31:25;18.70;99.90
20998;DHT22;10657;51.276;6.390;2022-10-16T13:33:59;18.60;99.90
20998;DHT22;10657;51.276;6.390;2022-10-16T13:36:35;18.60;99.90
20998;DHT22;10657;51.276;6.390;2022-10-16T13:41:37;18.80;99.90
20998;DHT22;10657;51.276;6.390;2022-10-16T13:44:04;18.90;99.90
20998;DHT22;10657;51.276;6.390;2022-10-16T13:46:31;18.90;99.90
20998;DHT22;10657;51.276;6.390;2022-10-16T13:49:11;18.80;99.90
20998;DHT22;10657;51.276;6.390;2022-10-16T13:51:38;18.90;99.90
20998;DHT22;10657;51.276;6.390;2022-10-16T13:54:05;18.90;99.90
20998;DHT22;10657;51.276;6.390;2022-10-16T13:56:32;18.80;99.90
20998;DHT22;10657;51.276;6.390;2022-10-16T13:59:05;18.60;99.90
20998;DHT22;10657;51.276;6.390;2022-10-16T14:01:42;18.50;99.90
20998;DHT22;10657;51.276;6.390;2022-10-16T14:04:12;18.50;99.90
20998;DHT22;10657;51.276;6.390;2022-10-16T14:06:45;18.50;99.90
20998;DHT22;10657;51.276;6.390;2022-10-16T14:09:29;18.50;99.90
20998;DHT22;10657;51.276;6.390;2022-10-16T14:12:11;18.50;99.90
20998;DHT22;10657;51.276;6.390;2022-10-16T14:14:44;18.60;99.90
20998;DHT22;10657;51.276;6.390;2022-10-16T14:17:23;18.70;99.90
20998;DHT22;10657;51.276;6.390;2022-10-16T14:19:52;18.60;99.90
20998;DHT22;10657;51.276;6.390;2022-10-16T14:24:59;18.50;99.90
20998;DHT22;10657;51.276;6.390;2022-10-16T14:27:36;18.50;99.90
20998;DHT22;10657;51.276;6.390;2022-10-16T14:30:18;18.30;99.90
20998;DHT22;10657;51.276;6.390;2022-10-16T14:33:18;18.30;99.90
20998;DHT22;10657;51.276;6.390;2022-10-16T14:35:45;18.30;99.90
20998;DHT22;10657;51.276;6.390;2022-10-16T14:38:19;18.30;99.90
20998;DHT22;10657;51.276;6.390;2022-10-16T14:40:47;18.40;99.90
20998;DHT22;10657;51.276;6.390;2022-10-16T14:43:21;18.40;99.90
20998;DHT22;10657;51.276;6.390;2022-10-16T14:45:56;18.30;99.90
20998;DHT22;10657;51.276;6.390;2022-10-16T14:48:23;18.20;99.90
20998;DHT22;10657;51.276;6.390;2022-10-16T14:50:50;18.20;99.90
20998;DHT22;10657;51.276;6.390;2022-10-16T14:53:17;18.10;99.90
20998;DHT22;10657;51.276;6.390;2022-10-16T14:55:44;18.20;99.90
20998;DHT22;10657;51.276;6.390;2022-10-16T14:58:20;18.10;99.90
20998;DHT22;10657;51.276;6.390;2022-10-16T15:00:48;18.00;99.90
20998;DHT22;10657;51.276;6.390;2022-10-16T15:03:15;18.10;99.90
20998;DHT22;10657;51.276;6.390;2022-10-16T15:05:41;18.00;99.90
20998;DHT22;10657;51.276;6.390;2022-10-16T15:08:08;17.90;99.90
20998;DHT22;10657;51.276;6.390;2022-10-16T15:10:39;17.80;99.90
20998;DHT22;10657;51.276;6.390;2022-10-16T15:13:08;17.60;99.90
20998;DHT22;10657;51.276;6.390;2022-10-16T15:15:36;17.60;99.90
20998;DHT22;10657;51.276;6.390;2022-10-16T15:18:03;17.60;99.90
20998;DHT22;10657;51.276;6.390;2022-10-16T15:20:33;17.60;99.90
20998;DHT22;10657;51.276;6.390;2022-10-16T15:23:06;17.50;99.90
20998;DHT22;10657;51.276;6.390;2022-10-16T15:25:43;17.50;99.90
20998;DHT22;10657;51.276;6.390;2022-10-16T15:28:11;17.50;99.90
20998;DHT22;10657;51.276;6.390;2022-10-16T15:30:39;17.40;99.90
20998;DHT22;10657;51.276;6.390;2022-10-16T15:33:12;17.40;99.90
20998;DHT22;10657;51.276;6.390;2022-10-16T15:35:39;17.40;99.90
20998;DHT22;10657;51.276;6.390;2022-10-16T15:38:07;17.40;99.90
20998;DHT22;10657;51.276;6.390;2022-10-16T15:40:35;17.30;99.90
20998;DHT22;10657;51.276;6.390;2022-10-16T15:43:02;17.30;99.90
20998;DHT22;10657;51.276;6.390;2022-10-16T15:45:28;17.30;99.90
20998;DHT22;10657;51.276;6.390;2022-10-16T15:47:55;17.40;99.90
20998;DHT22;10657;51.276;6.390;2022-10-16T15:50:21;17.30;99.90
20998;DHT22;10657;51.276;6.390;2022-10-16T15:52:49;17.30;99.90
20998;DHT22;10657;51.276;6.390;2022-10-16T15:55:17;17.20;99.90
20998;DHT22;10657;51.276;6.390;2022-10-16T15:57:45;17.00;99.90
20998;DHT22;10657;51.276;6.390;2022-10-16T16:00:15;17.00;99.90
20998;DHT22;10657;51.276;6.390;2022-10-16T16:02:42;17.00;99.90
20998;DHT22;10657;51.276;6.390;2022-10-16T16:05:10;17.10;99.90
20998;DHT22;10657;51.276;6.390;2022-10-16T16:07:38;17.00;99.90
20998;DHT22;10657;51.276;6.390;2022-10-16T16:10:09;17.00;99.90
20998;DHT22;10657;51.276;6.390;2022-10-16T16:12:36;17.00;99.90
20998;DHT22;10657;51.276;6.390;2022-10-16T16:15:07;16.90;99.90
20998;DHT22;10657;51.276;6.390;2022-10-16T16:17:35;16.80;99.90
20998;DHT22;10657;51.276;6.390;2022-10-16T16:20:04;16.70;99.90
20998;DHT22;10657;51.276;6.390;2022-10-16T16:22:31;16.60;99.90
20998;DHT22;10657;51.276;6.390;2022-10-16T16:24:57;16.70;99.90
20998;DHT22;10657;51.276;6.390;2022-10-16T16:27:24;16.70;99.90
20998;DHT22;10657;51.276;6.390;2022-10-16T16:29:52;16.60;99.90
20998;DHT22;10657;51.276;6.390;2022-10-16T16:32:19;16.60;99.90
20998;DHT22;10657;51.276;6.390;2022-10-16T16:34:46;16.50;99.90
20998;DHT22;10657;51.276;6.390;2022-10-16T16:37:13;16.50;99.90
20998;DHT22;10657;51.276;6.390;2022-10-16T16:39:39;16.50;99.90
20998;DHT22;10657;51.276;6.390;2022-10-16T16:42:06;16.40;99.90
20998;DHT22;10657;51.276;6.390;2022-10-16T16:44:33;16.30;99.90
20998;DHT22;10657;51.276;6.390;2022-10-16T16:47:03;16.30;99.90
20998;DHT22;10657;51.276;6.390;2022-10-16T16:49:30;16.20;99.90
20998;DHT22;10657;51.276;6.390;2022-10-16T16:51:57;16.20;99.90
20998;DHT22;10657;51.276;6.390;2022-10-16T16:54:24;16.20;99.90
20998;DHT22;10657;51.276;6.390;2022-10-16T16:56:51;16.20;99.90
20998;DHT22;10657;51.276;6.390;2022-10-16T16:59:19;16.20;99.90
20998;DHT22;10657;51.276;6.390;2022-10-16T17:01:46;16.00;99.90
20998;DHT22;10657;51.276;6.390;2022-10-16T17:04:19;16.00;99.90
20998;DHT22;10657;51.276;6.390;2022-10-16T17:06:46;15.90;99.90
20998;DHT22;10657;51.276;6.390;2022-10-16T17:09:12;15.90;99.90
20998;DHT22;10657;51.276;6.390;2022-10-16T17:11:39;15.90;99.90
20998;DHT22;10657;51.276;6.390;2022-10-16T17:14:09;15.90;99.90
20998;DHT22;10657;51.276;6.390;2022-10-16T17:16:37;15.90;99.90
20998;DHT22;10657;51.276;6.390;2022-10-16T17:19:07;15.90;99.90
20998;DHT22;10657;51.276;6.390;2022-10-16T17:21:34;15.70;99.90
20998;DHT22;10657;51.276;6.390;2022-10-16T17:24:02;15.70;99.90
20998;DHT22;10657;51.276;6.390;2022-10-16T17:26:29;15.90;99.90
20998;DHT22;10657;51.276;6.390;2022-10-16T17:28:59;15.80;99.90
20998;DHT22;10657;51.276;6.390;2022-10-16T17:31:29;15.80;99.90
20998;DHT22;10657;51.276;6.390;2022-10-16T17:33:58;15.80;99.90
20998;DHT22;10657;51.276;6.390;2022-10-16T17:36:25;15.80;99.90